Del Bonita, Canada
Current Conditions -  °F | °C
As of 2:32 PM on Friday 28 Nov 2014 (Local Time) from KCTB Reporting Station
Light Snow Light Snow  
Wind Chill: -20°   Ceiling: 1100
Heat Index:   Visibility: 3mi
Dew Point:   Wind: 29mph
Humidity: 84%   Direction: 360°N
Pressure: 29.5"   Gusts: 35mph
Location:  49.03°N, 112.79°W
Report Text: KCTB 282132Z AUTO 36025G30KT 3SM -SN BR OVC011 M16/M18 A2950 RMK AO2 PK WND 35030/2111 UPB19E22SNB22 P0000 T11561178
Loading
Personal Weather Stations






























Interactive Weather Map New forecast layout! Learn more

10-Day Weather Forecast

Advertisements
Track Severe Weather on mobile